createdAt,value
2023-05-17T00:00:32.683Z,42.52
2023-05-17T00:01:32.697Z,42.53
2023-05-17T00:02:32.756Z,42.54
2023-05-17T00:03:32.733Z,42.56
2023-05-17T00:04:32.750Z,42.49
2023-05-17T00:05:32.768Z,42.53
2023-05-17T00:06:32.906Z,42.50
2023-05-17T00:07:32.818Z,42.54
2023-05-17T00:08:32.836Z,42.53
2023-05-17T00:09:32.875Z,42.51
2023-05-17T00:10:32.903Z,42.48
2023-05-17T00:11:32.929Z,42.48
2023-05-17T00:12:33.136Z,42.44
2023-05-17T00:13:32.991Z,42.42
2023-05-17T00:14:33.021Z,42.40
2023-05-17T00:15:33.230Z,42.48
2023-05-17T00:16:33.258Z,42.43
2023-05-17T00:17:33.286Z,42.44
2023-05-17T00:18:33.432Z,42.48
2023-05-17T00:19:33.293Z,42.43
2023-05-17T00:20:33.341Z,42.42
2023-05-17T00:21:33.379Z,42.39
2023-05-17T00:22:33.413Z,42.40
2023-05-17T00:23:33.438Z,42.39
2023-05-17T00:24:33.465Z,42.40
2023-05-17T00:25:33.491Z,42.40
2023-05-17T00:26:33.597Z,42.41
2023-05-17T00:27:33.672Z,42.41
2023-05-17T00:28:33.691Z,42.42
2023-05-17T00:29:33.713Z,42.38
2023-05-17T00:30:33.742Z,42.41
2023-05-17T00:31:33.760Z,42.39
2023-05-17T00:32:33.825Z,42.38
2023-05-17T00:33:33.829Z,42.38
2023-05-17T00:34:33.894Z,42.35
2023-05-17T00:35:33.884Z,42.40
2023-05-17T00:36:33.909Z,42.39
2023-05-17T00:37:33.945Z,42.38
2023-05-17T00:38:34.024Z,42.36
2023-05-17T00:39:34.183Z,42.35
2023-05-17T00:40:34.018Z,42.34
2023-05-17T00:41:34.048Z,42.34
2023-05-17T00:42:34.077Z,42.40
2023-05-17T00:43:34.104Z,42.39
2023-05-17T00:44:34.148Z,42.37
2023-05-17T00:45:34.171Z,42.32
2023-05-17T00:46:34.199Z,42.35
2023-05-17T00:47:34.378Z,42.33
2023-05-17T00:48:34.430Z,42.35
2023-05-17T00:49:34.399Z,42.33
2023-05-17T00:50:34.444Z,42.33
2023-05-17T00:51:34.461Z,42.29
2023-05-17T00:52:34.580Z,42.31
2023-05-17T00:53:34.728Z,42.31
2023-05-17T00:54:34.739Z,42.31
2023-05-17T00:55:34.845Z,42.27
2023-05-17T00:56:34.805Z,42.25
2023-05-17T00:57:34.840Z,42.24
2023-05-17T00:58:34.876Z,42.27
2023-05-17T00:59:35.000Z,42.26
2023-05-17T01:00:35.026Z,42.25
2023-05-17T01:01:35.054Z,42.23
2023-05-17T01:02:35.157Z,42.25
2023-05-17T01:03:35.229Z,42.22
2023-05-17T01:04:35.194Z,42.20
2023-05-17T01:05:35.314Z,42.23
2023-05-17T01:06:35.355Z,42.22
2023-05-17T01:07:35.390Z,42.23
2023-05-17T01:08:35.441Z,42.21
2023-05-17T01:09:35.459Z,42.23
2023-05-17T01:10:35.480Z,42.21
2023-05-17T01:11:35.623Z,42.18
2023-05-17T01:12:35.573Z,42.19
2023-05-17T01:13:35.608Z,42.17
2023-05-17T01:14:35.641Z,42.17
2023-05-17T01:15:35.712Z,42.15
2023-05-17T01:16:35.760Z,42.21
2023-05-17T01:17:35.881Z,42.14
2023-05-17T01:18:35.912Z,42.18
2023-05-17T01:19:35.865Z,42.17
2023-05-17T01:20:35.946Z,42.18
2023-05-17T01:21:35.961Z,42.15
2023-05-17T01:22:35.988Z,42.14
2023-05-17T01:23:36.059Z,42.13
2023-05-17T01:24:36.061Z,42.14
2023-05-17T01:25:36.111Z,42.14
2023-05-17T01:26:36.222Z,42.11
2023-05-17T01:27:36.341Z,42.12
2023-05-17T01:28:36.287Z,42.11
2023-05-17T01:29:36.311Z,42.12
2023-05-17T01:30:36.340Z,42.11
2023-05-17T01:31:36.370Z,42.11
2023-05-17T01:32:36.451Z,42.13
2023-05-17T01:33:36.491Z,42.10
2023-05-17T01:34:36.455Z,42.11
2023-05-17T01:35:36.478Z,42.10
2023-05-17T01:36:36.521Z,42.09
2023-05-17T01:37:36.546Z,42.09
2023-05-17T01:38:36.601Z,42.10
2023-05-17T01:39:36.606Z,42.05
2023-05-17T01:40:36.675Z,42.04
2023-05-17T01:41:36.753Z,42.06
2023-05-17T01:42:36.760Z,42.04
2023-05-17T01:43:36.800Z,42.04
2023-05-17T01:44:36.814Z,42.03
2023-05-17T01:45:36.856Z,42.02
2023-05-17T01:46:36.870Z,41.99
2023-05-17T01:47:36.923Z,42.03
2023-05-17T01:48:36.952Z,42.02
2023-05-17T01:49:36.972Z,42.02
2023-05-17T01:50:36.995Z,41.99
2023-05-17T01:51:37.039Z,42.01
2023-05-17T01:52:37.071Z,41.96
2023-05-17T01:53:37.105Z,41.99
2023-05-17T01:54:37.129Z,42.01
2023-05-17T01:55:37.155Z,41.95
2023-05-17T01:56:37.231Z,41.96
2023-05-17T01:57:37.266Z,41.96
2023-05-17T01:58:37.293Z,41.96
2023-05-17T01:59:37.570Z,41.98
2023-05-17T02:00:37.360Z,41.97
2023-05-17T02:01:37.554Z,41.98
2023-05-17T02:02:37.595Z,41.96
2023-05-17T02:03:37.685Z,41.97
2023-05-17T02:04:37.651Z,41.95
2023-05-17T02:05:37.678Z,41.95
2023-05-17T02:06:37.748Z,41.96
2023-05-17T02:07:37.772Z,41.91
2023-05-17T02:08:37.796Z,41.95
2023-05-17T02:09:37.848Z,41.98
2023-05-17T02:10:37.872Z,41.94
2023-05-17T02:11:37.900Z,41.92
2023-05-17T02:12:37.945Z,41.92
2023-05-17T02:13:38.029Z,41.88
2023-05-17T02:14:38.008Z,41.91
2023-05-17T02:15:38.155Z,41.89
2023-05-17T02:16:38.091Z,41.89
2023-05-17T02:17:38.196Z,41.87
2023-05-17T02:18:38.308Z,41.92
2023-05-17T02:19:38.264Z,41.87
2023-05-17T02:20:38.229Z,41.93
2023-05-17T02:21:38.271Z,41.89
2023-05-17T02:22:38.340Z,41.89
2023-05-17T02:23:38.355Z,41.88
2023-05-17T02:24:38.380Z,41.86
2023-05-17T02:25:38.523Z,41.85
2023-05-17T02:26:38.605Z,41.86
2023-05-17T02:27:38.645Z,41.82
2023-05-17T02:28:38.682Z,41.82
2023-05-17T02:29:38.714Z,41.83
2023-05-17T02:30:38.743Z,41.81
2023-05-17T02:31:39.054Z,41.83
2023-05-17T02:32:39.149Z,41.81
2023-05-17T02:33:39.190Z,41.81
2023-05-17T02:34:39.092Z,41.79
2023-05-17T02:35:39.133Z,41.81
2023-05-17T02:36:39.188Z,41.80
2023-05-17T02:37:39.317Z,41.81
2023-05-17T02:38:39.465Z,41.78
2023-05-17T02:39:39.580Z,41.78
2023-05-17T02:40:39.604Z,41.79
2023-05-17T02:41:39.646Z,41.79
2023-05-17T02:42:39.676Z,41.77
2023-05-17T02:43:39.708Z,41.79
2023-05-17T02:44:39.749Z,41.78
2023-05-17T02:45:39.820Z,41.75
2023-05-17T02:46:39.853Z,41.75
2023-05-17T02:47:40.040Z,41.77
2023-05-17T02:48:39.925Z,41.79
2023-05-17T02:49:39.957Z,41.76
2023-05-17T02:50:40.088Z,41.75
2023-05-17T02:51:40.116Z,41.78
2023-05-17T02:52:40.153Z,41.76
2023-05-17T02:53:40.188Z,41.75
2023-05-17T02:54:40.223Z,41.74
2023-05-17T02:55:40.248Z,41.73
2023-05-17T02:56:40.389Z,41.72
2023-05-17T02:57:40.413Z,41.72
2023-05-17T02:58:40.444Z,41.72
2023-05-17T02:59:40.466Z,41.74
2023-05-17T03:00:40.497Z,41.72
2023-05-17T03:01:40.536Z,41.69
2023-05-17T03:02:40.605Z,41.72
2023-05-17T03:03:40.977Z,41.72
2023-05-17T03:04:40.697Z,41.71
2023-05-17T03:05:40.636Z,41.70
2023-05-17T03:06:40.678Z,41.70
2023-05-17T03:07:40.719Z,41.70
2023-05-17T03:08:40.761Z,41.65
2023-05-17T03:09:40.787Z,41.63
2023-05-17T03:10:40.824Z,41.66
2023-05-17T03:11:40.920Z,41.66
2023-05-17T03:12:40.896Z,41.64
2023-05-17T03:13:40.924Z,41.65
2023-05-17T03:14:40.965Z,41.62
2023-05-17T03:15:40.996Z,41.65
2023-05-17T03:16:41.023Z,41.64
2023-05-17T03:17:41.104Z,41.62
2023-05-17T03:18:41.230Z,41.60
2023-05-17T03:19:41.313Z,41.65
2023-05-17T03:20:41.176Z,41.61
2023-05-17T03:21:41.292Z,41.61
2023-05-17T03:22:41.306Z,41.59
2023-05-17T03:23:41.328Z,41.60
2023-05-17T03:24:41.358Z,41.58
2023-05-17T03:25:41.392Z,41.59
2023-05-17T03:26:41.421Z,41.59
2023-05-17T03:27:41.469Z,41.60
2023-05-17T03:28:41.482Z,41.61
2023-05-17T03:29:41.518Z,41.59
2023-05-17T03:30:41.578Z,41.60
2023-05-17T03:31:41.580Z,41.59
2023-05-17T03:32:41.804Z,41.56
2023-05-17T03:33:41.793Z,41.55
2023-05-17T03:34:41.795Z,41.59
2023-05-17T03:35:41.843Z,41.53
2023-05-17T03:36:41.865Z,41.55
2023-05-17T03:37:41.927Z,41.56
2023-05-17T03:38:41.998Z,41.53
2023-05-17T03:39:42.041Z,41.55
2023-05-17T03:40:42.059Z,41.56
2023-05-17T03:41:42.147Z,41.55
2023-05-17T03:42:42.127Z,41.55
2023-05-17T03:43:42.226Z,41.51
2023-05-17T03:44:42.252Z,41.52
2023-05-17T03:45:42.293Z,41.52
2023-05-17T03:46:42.323Z,41.49
2023-05-17T03:47:42.391Z,41.49
2023-05-17T03:48:42.426Z,41.51
2023-05-17T03:49:42.450Z,41.50
2023-05-17T03:50:42.466Z,41.48
2023-05-17T03:51:42.553Z,41.50
2023-05-17T03:52:42.526Z,41.51
2023-05-17T03:53:42.614Z,41.50
2023-05-17T03:54:42.658Z,41.47
2023-05-17T03:55:42.735Z,41.50
2023-05-17T03:56:42.731Z,41.48
2023-05-17T03:57:42.837Z,41.49
2023-05-17T03:58:42.863Z,41.49
2023-05-17T03:59:42.898Z,41.47
2023-05-17T04:00:42.940Z,41.46
2023-05-17T04:01:42.960Z,41.42
2023-05-17T04:02:43.053Z,41.44
2023-05-17T04:03:43.047Z,41.43
2023-05-17T04:04:43.084Z,41.45
2023-05-17T04:05:43.094Z,41.42
2023-05-17T04:06:43.131Z,41.43
2023-05-17T04:07:43.283Z,41.41
2023-05-17T04:08:43.275Z,41.40
2023-05-17T04:09:43.227Z,41.43
2023-05-17T04:10:43.294Z,41.39
2023-05-17T04:11:43.297Z,41.36
2023-05-17T04:12:43.485Z,41.39
2023-05-17T04:13:43.356Z,41.39
2023-05-17T04:14:43.401Z,41.41
2023-05-17T04:15:43.441Z,41.37
2023-05-17T04:16:43.465Z,41.35
2023-05-17T04:17:43.588Z,41.34
2023-05-17T04:18:43.658Z,41.35
2023-05-17T04:19:43.645Z,41.36
2023-05-17T04:20:43.599Z,41.33
2023-05-17T04:21:43.633Z,41.36
2023-05-17T04:22:43.673Z,41.33
2023-05-17T04:23:43.773Z,41.33
2023-05-17T04:24:43.743Z,41.31
2023-05-17T04:25:43.781Z,41.30
2023-05-17T04:26:43.811Z,41.32
2023-05-17T04:27:43.839Z,41.30
2023-05-17T04:28:43.887Z,41.29
2023-05-17T04:29:43.894Z,41.32
2023-05-17T04:30:44.022Z,41.30
2023-05-17T04:31:44.043Z,41.26
2023-05-17T04:32:44.112Z,41.27
2023-05-17T04:33:44.153Z,41.25
2023-05-17T04:34:44.144Z,41.25
2023-05-17T04:35:44.182Z,41.25
2023-05-17T04:36:44.206Z,41.26
2023-05-17T04:37:44.246Z,41.28
2023-05-17T04:38:44.287Z,41.23
2023-05-17T04:39:44.393Z,41.25
2023-05-17T04:40:44.354Z,41.22
2023-05-17T04:41:44.400Z,41.22
2023-05-17T04:42:44.426Z,41.20
2023-05-17T04:43:44.455Z,41.22
2023-05-17T04:44:44.504Z,41.20
2023-05-17T04:45:44.537Z,41.21
2023-05-17T04:46:44.576Z,41.17
2023-05-17T04:47:44.672Z,41.20
2023-05-17T04:48:44.711Z,41.22
2023-05-17T04:49:44.685Z,41.20
2023-05-17T04:50:44.778Z,41.19
2023-05-17T04:51:44.827Z,41.17
2023-05-17T04:52:44.863Z,41.13
2023-05-17T04:53:44.898Z,41.14
2023-05-17T04:54:44.938Z,41.12
2023-05-17T04:55:45.058Z,41.17
2023-05-17T04:56:45.024Z,41.11
2023-05-17T04:57:45.054Z,41.12
2023-05-17T04:58:45.098Z,41.10
2023-05-17T04:59:45.180Z,41.12
2023-05-17T05:00:45.176Z,41.11
2023-05-17T05:01:45.207Z,41.09
2023-05-17T05:02:45.257Z,41.06
2023-05-17T05:03:45.309Z,41.02
2023-05-17T05:04:45.384Z,41.07
2023-05-17T05:05:45.339Z,41.08
2023-05-17T05:06:45.378Z,41.06
2023-05-17T05:07:45.404Z,41.05
2023-05-17T05:08:45.451Z,41.06
2023-05-17T05:09:45.490Z,41.05
2023-05-17T05:10:45.534Z,41.06
2023-05-17T05:11:45.622Z,41.05
2023-05-17T05:12:45.589Z,40.98
2023-05-17T05:13:45.635Z,40.99
2023-05-17T05:14:45.670Z,40.98
2023-05-17T05:15:45.724Z,40.93
2023-05-17T05:16:45.740Z,40.97
2023-05-17T05:17:45.825Z,40.99
2023-05-17T05:18:45.942Z,41.01
2023-05-17T05:19:45.872Z,41.04
2023-05-17T05:20:45.854Z,41.03
2023-05-17T05:21:45.989Z,41.02
2023-05-17T05:22:46.069Z,41.01
2023-05-17T05:23:46.048Z,41.07
2023-05-17T05:24:45.986Z,41.10
2023-05-17T05:25:46.035Z,41.04
2023-05-17T05:26:46.078Z,41.11
2023-05-17T05:27:46.110Z,41.14
2023-05-17T05:28:46.145Z,41.25
2023-05-17T05:29:46.160Z,41.32
2023-05-17T05:30:46.212Z,41.57
2023-05-17T05:31:46.233Z,41.44
2023-05-17T05:32:46.325Z,41.48
2023-05-17T05:33:46.944Z,41.47
2023-05-17T05:34:46.300Z,41.41
2023-05-17T05:35:46.341Z,41.42
2023-05-17T05:36:46.354Z,41.36
2023-05-17T05:37:47.374Z,41.36
2023-05-17T05:38:46.417Z,41.38
2023-05-17T05:39:46.484Z,41.07
2023-05-17T05:40:46.476Z,41.03
2023-05-17T05:41:46.515Z,41.09
2023-05-17T05:42:46.622Z,40.99
2023-05-17T05:43:46.757Z,41.01
2023-05-17T05:44:46.658Z,40.97
2023-05-17T05:45:46.695Z,41.05
2023-05-17T05:46:46.699Z,40.97
2023-05-17T05:47:46.920Z,41.03
2023-05-17T05:48:46.926Z,41.04
2023-05-17T05:49:46.892Z,40.98
2023-05-17T05:50:46.901Z,41.00
2023-05-17T05:51:46.934Z,40.99
2023-05-17T05:52:47.106Z,41.04
2023-05-17T05:53:47.049Z,41.06
2023-05-17T05:54:47.080Z,41.01
2023-05-17T05:55:47.102Z,41.05
2023-05-17T05:56:47.210Z,41.07
2023-05-17T05:57:47.246Z,41.08
2023-05-17T05:58:47.258Z,41.01
2023-05-17T05:59:47.334Z,41.05
2023-05-17T06:00:47.298Z,41.04
2023-05-17T06:01:47.330Z,41.06
2023-05-17T06:02:47.428Z,41.05
2023-05-17T06:03:47.412Z,41.00
2023-05-17T06:04:47.443Z,40.95
2023-05-17T06:05:47.536Z,40.87
2023-05-17T06:06:47.583Z,40.88
2023-05-17T06:07:47.521Z,40.93
2023-05-17T06:08:47.574Z,41.06
2023-05-17T06:09:47.575Z,41.06
2023-05-17T06:10:47.612Z,40.99
2023-05-17T06:11:47.644Z,41.02
2023-05-17T06:12:47.767Z,41.01
